Aeroporto :
LOGIN :

Iscrizione | Disclaimer

   EN    FR    IT 

 










Sommario :    VFR   VFR Marginale   IFR   IFR Intensivo   IFR Molto Intensivo
Visibilità : 
Base nubi : 
>= 8 km
>= 3000ft
5 / 8 km
1000 / 3000 ft
1500m / 5 km
500 / 1000 ft
800 / 1500m
200 / 500 ft
< 800m
< 200 ft
Simboli :   Temporali  Nebbia  Neve Forte  Precipitazioni Forti  Vento > 20 kt
SIGMETs :   Varie  Temporali  Ghiacco  Turbolenza  Onda orograficha  Ceneri Vulcaniche






- Altitudine del aeroporto : 909 ft
- Codice IATA : KSF


EDVK - Kassel Calden

ULTIMO METAR :
  • 231220Z 12005KT 060V160 9000 OVC011 13/11 Q1017

METARs OBSOLETI :
  • 231150Z 11007KT 8000 OVC011 13/11 Q1016
  • 231120Z 11006KT 8000 OVC011 13/10 Q1017
  • 231050Z 12006KT 7000 OVC011 12/10 Q1017
  • 231020Z 13005KT 7000 OVC009 12/10 Q1018
  • 230950Z 13004KT 090V170 7000 OVC008 12/10 Q1018

TAF TAF EDVK
Valido dal 23 a 12 ore il 23 a 21 ore UTC


231100Z 2312/2321 11007KT 7000 BKN014
TEMPO 2312/2317 SCT014
BECMG 2317/2319 3000 BR



MetMap, La meteo Aeronautica in un colpo d'occhio ! - Copyright ORBIFLY Dicembre 2007 - Disclaimer

ORBIFLY MET'MAP TEAM :

Programmazione e sviluppo : Alexandra Zaïnal
Concezione e sviluppo : Baudouin d'Aumeries
Co-Programmazione e sviluppo : Marc-Olivier Méhu
Supporto tecnico e logistico : Manuel Goepfert
Aiuto per la traduzione : Arnaldo La Scala

Contatto : metmap@orbifly.com




FONTI E CREDITI :

   NOAA